createdAt,value
2022-08-20T00:00:18.338Z,100.00
2022-08-20T00:02:51.027Z,100.00
2022-08-20T00:05:20.957Z,100.00
2022-08-20T00:07:47.522Z,100.00
2022-08-20T00:10:13.994Z,100.00
2022-08-20T00:12:44.675Z,100.00
2022-08-20T00:15:12.364Z,100.00
2022-08-20T00:17:39.617Z,100.00
2022-08-20T00:20:08.817Z,100.00
2022-08-20T00:22:35.511Z,100.00
2022-08-20T00:25:02.390Z,100.00
2022-08-20T00:27:29.022Z,100.00
2022-08-20T00:29:55.526Z,100.00
2022-08-20T00:32:22.553Z,100.00
2022-08-20T00:34:49.110Z,100.00
2022-08-20T00:37:15.621Z,100.00
2022-08-20T00:39:42.166Z,100.00
2022-08-20T00:42:08.737Z,100.00
2022-08-20T00:44:35.665Z,100.00
2022-08-20T00:47:02.312Z,100.00
2022-08-20T00:49:30.513Z,100.00
2022-08-20T00:52:06.086Z,100.00
2022-08-20T00:54:35.341Z,100.00
2022-08-20T00:57:04.654Z,100.00
2022-08-20T00:59:32.595Z,100.00
2022-08-20T01:02:00.496Z,100.00
2022-08-20T01:04:28.398Z,100.00
2022-08-20T01:06:55.224Z,100.00
2022-08-20T01:09:33.466Z,100.00
2022-08-20T01:12:09.893Z,100.00
2022-08-20T01:14:36.434Z,100.00
2022-08-20T01:17:05.103Z,100.00
2022-08-20T01:19:55.266Z,100.00
2022-08-20T01:22:46.990Z,100.00
2022-08-20T01:25:24.058Z,100.00
2022-08-20T01:27:55.204Z,100.00
2022-08-20T01:30:23.914Z,100.00
2022-08-20T01:32:50.746Z,100.00
2022-08-20T01:35:21.288Z,100.00
2022-08-20T01:37:47.797Z,100.00
2022-08-20T01:40:17.232Z,100.00
2022-08-20T01:42:52.829Z,100.00
2022-08-20T01:45:27.962Z,100.00
2022-08-20T01:47:57.503Z,100.00
2022-08-20T01:50:26.109Z,100.00
2022-08-20T01:53:06.640Z,100.00
2022-08-20T01:55:33.322Z,100.00
2022-08-20T01:58:00.240Z,100.00
2022-08-20T02:00:26.881Z,100.00
2022-08-20T02:02:53.407Z,100.00
2022-08-20T02:05:21.181Z,100.00
2022-08-20T02:07:47.718Z,100.00
2022-08-20T02:10:15.506Z,100.00
2022-08-20T02:12:42.149Z,100.00
2022-08-20T02:15:10.487Z,100.00
2022-08-20T02:17:38.750Z,100.00
2022-08-20T02:20:08.122Z,100.00
2022-08-20T02:22:37.741Z,100.00
2022-08-20T02:25:05.978Z,100.00
2022-08-20T02:27:32.457Z,100.00
2022-08-20T02:30:01.439Z,100.00
2022-08-20T02:32:33.446Z,100.00
2022-08-20T02:35:03.314Z,100.00
2022-08-20T02:37:30.273Z,100.00
2022-08-20T02:39:56.895Z,100.00
2022-08-20T02:42:23.857Z,100.00
2022-08-20T02:44:50.380Z,100.00
2022-08-20T02:47:17.240Z,100.00
2022-08-20T02:49:44.090Z,100.00
2022-08-20T02:52:10.615Z,100.00
2022-08-20T02:54:37.196Z,100.00
2022-08-20T02:57:04.623Z,100.00
2022-08-20T02:59:31.400Z,100.00
2022-08-20T03:02:00.554Z,99.87
2022-08-20T03:04:28.618Z,99.54
2022-08-20T03:06:55.103Z,99.72
2022-08-20T03:09:21.835Z,97.28
2022-08-20T03:11:48.804Z,99.96
2022-08-20T03:14:15.297Z,100.00
2022-08-20T03:16:41.806Z,100.00
2022-08-20T03:19:08.558Z,100.00
2022-08-20T03:21:35.273Z,100.00
2022-08-20T03:24:01.786Z,100.00
2022-08-20T03:26:28.350Z,100.00
2022-08-20T03:28:54.890Z,100.00
2022-08-20T03:31:21.453Z,100.00
2022-08-20T03:33:52.660Z,100.00
2022-08-20T03:36:28.152Z,100.00
2022-08-20T03:39:00.506Z,100.00
2022-08-20T03:41:27.360Z,99.99
2022-08-20T03:43:54.542Z,95.94
2022-08-20T03:46:23.221Z,98.70
2022-08-20T03:48:50.810Z,98.68
2022-08-20T03:51:27.466Z,98.60
2022-08-20T03:53:53.971Z,97.69
2022-08-20T03:56:20.495Z,98.33
2022-08-20T03:58:46.978Z,96.57
2022-08-20T04:01:44.260Z,97.43
2022-08-20T04:04:00.351Z,97.90
2022-08-20T04:06:29.167Z,100.00
2022-08-20T04:08:56.349Z,100.00
2022-08-20T04:11:24.152Z,100.00
2022-08-20T04:13:50.699Z,100.00
2022-08-20T04:16:18.241Z,100.00
2022-08-20T04:18:56.065Z,100.00
2022-08-20T04:21:33.071Z,98.86
2022-08-20T04:24:00.535Z,100.00
2022-08-20T04:26:27.130Z,100.00
2022-08-20T04:28:55.358Z,100.00
2022-08-20T04:31:25.343Z,100.00
2022-08-20T04:33:52.562Z,100.00
2022-08-20T04:36:19.309Z,100.00
2022-08-20T04:38:47.832Z,100.00
2022-08-20T04:41:22.561Z,100.00
2022-08-20T04:43:51.075Z,100.00
2022-08-20T04:46:17.758Z,100.00
2022-08-20T04:48:48.782Z,98.64
2022-08-20T04:51:17.954Z,100.00
2022-08-20T04:53:45.282Z,100.00
2022-08-20T04:56:23.158Z,100.00
2022-08-20T04:58:49.975Z,99.72
2022-08-20T05:01:16.712Z,100.00
2022-08-20T05:03:43.319Z,99.65
2022-08-20T05:06:10.958Z,98.00
2022-08-20T05:08:38.560Z,97.07
2022-08-20T05:11:07.190Z,94.18
2022-08-20T05:13:52.858Z,91.33
2022-08-20T05:16:19.760Z,89.71
2022-08-20T05:18:51.687Z,90.24
2022-08-20T05:21:19.290Z,89.97
2022-08-20T05:23:45.966Z,88.50
2022-08-20T05:26:13.047Z,86.45
2022-08-20T05:28:54.256Z,86.59
2022-08-20T05:31:32.537Z,85.70
2022-08-20T05:34:10.432Z,84.94
2022-08-20T05:36:41.730Z,85.76
2022-08-20T05:39:09.073Z,86.80
2022-08-20T05:41:36.295Z,86.04
2022-08-20T05:44:02.909Z,86.43
2022-08-20T05:46:31.367Z,87.68
2022-08-20T05:48:59.783Z,88.00
2022-08-20T05:51:27.011Z,83.79
2022-08-20T05:53:54.630Z,82.14
2022-08-20T05:56:27.040Z,81.79
2022-08-20T05:58:54.158Z,79.33
2022-08-20T06:01:20.934Z,76.28
2022-08-20T06:04:06.375Z,82.71
2022-08-20T06:06:44.947Z,84.20
2022-08-20T06:09:13.734Z,83.57
2022-08-20T06:11:40.246Z,81.88
2022-08-20T06:14:06.770Z,82.03
2022-08-20T06:16:33.309Z,81.59
2022-08-20T06:18:59.955Z,81.51
2022-08-20T06:21:29.624Z,81.30
2022-08-20T06:23:58.046Z,81.88
2022-08-20T06:26:29.842Z,81.03
2022-08-20T06:28:57.858Z,81.24
2022-08-20T06:31:24.980Z,81.64
2022-08-20T06:33:51.502Z,81.94
2022-08-20T06:38:46.165Z,76.05
2022-08-20T06:41:12.733Z,76.83
2022-08-20T06:43:39.211Z,70.80
2022-08-20T06:46:06.962Z,73.63
2022-08-20T06:48:33.877Z,69.91
2022-08-20T06:51:00.536Z,67.33
2022-08-20T06:53:27.046Z,67.29
2022-08-20T06:55:54.644Z,69.33
2022-08-20T06:58:36.294Z,66.17
2022-08-20T07:01:08.740Z,65.05
2022-08-20T07:03:37.606Z,64.66
2022-08-20T07:06:04.150Z,60.74
2022-08-20T07:08:30.632Z,58.20
2022-08-20T07:10:57.130Z,56.98
2022-08-20T07:13:24.399Z,56.70
2022-08-20T07:15:52.980Z,55.59
2022-08-20T07:18:28.458Z,50.52
2022-08-20T07:20:57.256Z,50.40
2022-08-20T07:23:27.090Z,55.48
2022-08-20T07:25:53.723Z,55.60
2022-08-20T07:28:21.108Z,54.29
2022-08-20T07:31:13.332Z,52.31
2022-08-20T07:33:44.350Z,52.52
2022-08-20T07:36:11.996Z,51.87
2022-08-20T07:38:38.462Z,49.84
2022-08-20T07:41:09.972Z,46.16
2022-08-20T07:43:36.700Z,49.48
2022-08-20T07:46:07.616Z,48.93
2022-08-20T07:48:36.414Z,46.55
2022-08-20T07:51:04.215Z,48.26
2022-08-20T07:53:35.214Z,46.00
2022-08-20T07:56:06.005Z,46.10
2022-08-20T07:58:33.771Z,44.75
2022-08-20T08:01:00.687Z,44.53
2022-08-20T08:03:40.832Z,42.12
2022-08-20T08:06:17.281Z,39.82
2022-08-20T08:08:55.827Z,44.68
2022-08-20T08:11:22.535Z,41.47
2022-08-20T08:13:49.091Z,43.18
2022-08-20T08:16:15.757Z,42.48
2022-08-20T08:18:45.242Z,44.17
2022-08-20T08:21:13.038Z,44.18
2022-08-20T08:23:44.371Z,42.54
2022-08-20T08:26:15.979Z,43.00
2022-08-20T08:28:45.364Z,41.62
2022-08-20T08:31:12.144Z,41.74
2022-08-20T08:33:40.736Z,39.83
2022-08-20T08:36:12.497Z,42.20
2022-08-20T08:38:39.981Z,40.92
2022-08-20T08:41:18.410Z,39.11
2022-08-20T08:43:49.601Z,38.06
2022-08-20T08:46:18.745Z,38.27
2022-08-20T08:48:47.399Z,37.22
2022-08-20T08:51:17.350Z,39.56
2022-08-20T08:53:46.319Z,39.32
2022-08-20T08:56:14.592Z,38.17
2022-08-20T08:58:41.622Z,38.51
2022-08-20T09:01:13.873Z,38.57
2022-08-20T09:03:56.471Z,35.13
2022-08-20T09:06:24.970Z,35.12
2022-08-20T09:08:58.043Z,36.95
2022-08-20T09:11:25.517Z,37.37
2022-08-20T09:13:54.231Z,36.48
2022-08-20T09:16:22.801Z,35.36
2022-08-20T09:18:49.820Z,37.03
2022-08-20T09:21:16.466Z,39.98
2022-08-20T09:23:43.243Z,41.15
2022-08-20T09:26:10.270Z,42.24
2022-08-20T09:28:37.266Z,40.77
2022-08-20T09:31:04.400Z,38.10
2022-08-20T09:33:31.374Z,39.24
2022-08-20T09:35:58.025Z,40.09
2022-08-20T09:38:24.617Z,40.53
2022-08-20T09:40:51.185Z,39.96
2022-08-20T09:43:17.797Z,41.20
2022-08-20T09:45:44.310Z,42.56
2022-08-20T09:48:10.847Z,42.65
2022-08-20T09:50:40.630Z,42.82
2022-08-20T09:53:07.368Z,42.15
2022-08-20T09:55:35.967Z,42.99
2022-08-20T09:58:04.182Z,43.12
2022-08-20T10:00:30.780Z,41.60
2022-08-20T10:02:57.385Z,43.27
2022-08-20T10:05:23.911Z,43.06
2022-08-20T10:07:50.501Z,42.25
2022-08-20T10:10:16.993Z,42.91
2022-08-20T10:12:43.626Z,45.04
2022-08-20T10:15:10.657Z,45.02
2022-08-20T10:17:38.704Z,48.45
2022-08-20T10:20:05.649Z,55.44
2022-08-20T10:22:32.801Z,59.31
2022-08-20T10:24:59.357Z,60.07
2022-08-20T10:27:25.931Z,60.22
2022-08-20T10:29:52.386Z,56.65
2022-08-20T10:32:19.094Z,59.36
2022-08-20T10:34:47.604Z,54.73
2022-08-20T10:37:15.569Z,53.86
2022-08-20T10:39:42.118Z,53.84
2022-08-20T10:42:08.659Z,54.27
2022-08-20T10:44:35.124Z,55.89
2022-08-20T10:47:24.710Z,54.45
2022-08-20T10:49:52.882Z,51.69
2022-08-20T10:52:20.307Z,49.36
2022-08-20T10:54:46.994Z,51.47
2022-08-20T10:57:17.914Z,50.97
2022-08-20T10:59:46.085Z,51.83
2022-08-20T11:02:13.205Z,51.69
2022-08-20T11:04:41.041Z,52.15
2022-08-20T11:07:55.271Z,51.33
2022-08-20T11:10:14.812Z,49.20
2022-08-20T11:12:42.039Z,49.52
2022-08-20T11:15:12.037Z,52.40
2022-08-20T11:17:40.832Z,51.80
2022-08-20T11:20:07.989Z,50.58
2022-08-20T11:22:35.048Z,47.90
2022-08-20T11:25:01.768Z,47.87
2022-08-20T11:27:33.527Z,52.81
2022-08-20T11:30:00.654Z,52.11
2022-08-20T11:32:27.275Z,52.35
2022-08-20T11:34:53.862Z,59.44
2022-08-20T11:37:21.558Z,61.40
2022-08-20T11:39:48.128Z,61.44
2022-08-20T11:42:14.695Z,61.27
2022-08-20T11:44:41.167Z,60.78
2022-08-20T11:47:08.054Z,62.59
2022-08-20T11:49:35.729Z,62.36
2022-08-20T11:52:02.622Z,60.92
2022-08-20T11:54:29.330Z,59.36
2022-08-20T11:56:57.894Z,59.29
2022-08-20T11:59:25.542Z,55.17
2022-08-20T12:02:03.065Z,54.55
2022-08-20T12:04:33.713Z,51.04
2022-08-20T12:07:08.891Z,49.35
2022-08-20T12:09:35.438Z,49.88
2022-08-20T12:12:06.863Z,52.45
2022-08-20T12:14:33.461Z,53.66
2022-08-20T12:17:19.712Z,54.30
2022-08-20T12:19:46.264Z,54.61
2022-08-20T12:22:22.475Z,54.76
2022-08-20T12:24:52.076Z,56.42
2022-08-20T12:27:18.734Z,55.19
2022-08-20T12:29:46.186Z,55.77
2022-08-20T12:32:13.231Z,55.09
2022-08-20T12:34:41.673Z,56.31
2022-08-20T12:37:12.865Z,57.48
2022-08-20T12:39:44.068Z,57.02
2022-08-20T12:42:11.035Z,59.32
2022-08-20T12:44:38.407Z,59.41
2022-08-20T12:47:15.569Z,58.81
2022-08-20T12:49:43.243Z,59.55
2022-08-20T12:52:09.792Z,59.59
2022-08-20T12:54:36.316Z,58.21
2022-08-20T12:57:02.825Z,61.30
2022-08-20T12:59:33.769Z,62.58
2022-08-20T13:02:09.257Z,63.10
2022-08-20T13:04:40.842Z,64.06
2022-08-20T13:07:07.532Z,66.00
2022-08-20T13:09:38.046Z,64.76
2022-08-20T13:12:07.340Z,64.60
2022-08-20T13:14:34.333Z,66.02
2022-08-20T13:17:01.782Z,64.69
2022-08-20T13:19:29.975Z,64.38
2022-08-20T13:21:56.928Z,65.87
2022-08-20T13:24:23.469Z,64.66
2022-08-20T13:26:50.539Z,62.98
2022-08-20T13:29:17.661Z,62.74
2022-08-20T13:31:44.139Z,62.36
2022-08-20T13:34:10.866Z,61.39
2022-08-20T13:36:37.533Z,64.05
2022-08-20T13:39:05.210Z,63.93
2022-08-20T13:41:31.809Z,61.43
2022-08-20T13:43:58.281Z,60.63
2022-08-20T13:46:24.838Z,61.51
2022-08-20T13:48:51.403Z,63.41
2022-08-20T13:51:19.052Z,63.69
2022-08-20T13:53:45.943Z,64.89
2022-08-20T13:56:13.298Z,63.57
2022-08-20T13:58:39.801Z,63.13
2022-08-20T14:01:06.430Z,62.39
2022-08-20T14:03:34.769Z,61.84
2022-08-20T14:06:02.106Z,61.91
2022-08-20T14:08:28.992Z,61.06
2022-08-20T14:10:55.536Z,61.82
2022-08-20T14:13:23.413Z,62.55
2022-08-20T14:15:50.370Z,61.59
2022-08-20T14:18:16.902Z,61.89
2022-08-20T14:20:45.600Z,61.21
2022-08-20T14:23:12.657Z,60.24
2022-08-20T14:25:39.168Z,60.03
2022-08-20T14:28:10.327Z,55.91
2022-08-20T14:30:36.840Z,53.12
2022-08-20T14:33:03.767Z,52.88
2022-08-20T14:35:30.886Z,51.26
2022-08-20T14:37:57.928Z,49.28
2022-08-20T14:40:25.458Z,43.47
2022-08-20T14:42:52.720Z,43.09
2022-08-20T14:45:20.423Z,44.49
2022-08-20T14:47:53.809Z,40.51
2022-08-20T14:50:22.628Z,40.79
2022-08-20T14:52:49.268Z,40.38
2022-08-20T14:55:19.271Z,41.77
2022-08-20T14:57:46.461Z,39.94
2022-08-20T15:00:14.712Z,39.84
2022-08-20T15:02:41.439Z,40.30
2022-08-20T15:05:08.313Z,39.12
2022-08-20T15:07:36.874Z,38.90
2022-08-20T15:10:06.443Z,40.25
2022-08-20T15:12:35.233Z,40.56
2022-08-20T15:15:15.847Z,39.88
2022-08-20T15:17:44.043Z,39.59
2022-08-20T15:20:20.464Z,40.79
2022-08-20T15:22:48.229Z,40.56
2022-08-20T15:25:16.782Z,41.43
2022-08-20T15:27:44.633Z,42.31
2022-08-20T15:30:13.637Z,41.65
2022-08-20T15:32:40.391Z,42.60
2022-08-20T15:35:08.056Z,42.58
2022-08-20T15:37:34.713Z,42.26
2022-08-20T15:40:04.213Z,42.52
2022-08-20T15:42:30.764Z,42.02
2022-08-20T15:44:57.273Z,43.28
2022-08-20T15:47:26.503Z,42.71
2022-08-20T15:49:55.578Z,41.91
2022-08-20T15:52:23.118Z,41.64
2022-08-20T15:54:49.641Z,42.02
2022-08-20T15:57:48.378Z,42.52
2022-08-20T16:00:20.119Z,42.31
2022-08-20T16:03:08.567Z,43.50
2022-08-20T16:05:44.919Z,42.87
2022-08-20T16:08:14.614Z,43.46
2022-08-20T16:11:01.431Z,43.49
2022-08-20T16:13:46.532Z,44.03
2022-08-20T16:16:21.233Z,43.54
2022-08-20T16:18:50.185Z,42.69
2022-08-20T16:21:19.209Z,43.78
2022-08-20T16:23:45.846Z,45.01
2022-08-20T16:26:31.856Z,43.96
2022-08-20T16:28:58.377Z,44.79
2022-08-20T16:31:28.324Z,44.83
2022-08-20T16:34:03.841Z,44.61
2022-08-20T16:37:10.132Z,44.36
2022-08-20T16:39:54.680Z,44.63
2022-08-20T16:42:23.312Z,44.52
2022-08-20T16:44:52.634Z,45.06
2022-08-20T16:47:22.004Z,45.32
2022-08-20T16:50:00.799Z,45.45
2022-08-20T16:52:27.844Z,45.30
2022-08-20T16:54:54.451Z,45.42
2022-08-20T16:57:21.157Z,45.08
2022-08-20T17:00:14.913Z,45.79
2022-08-20T17:02:50.788Z,45.33
2022-08-20T17:05:17.501Z,45.39
2022-08-20T17:07:51.380Z,45.88
2022-08-20T17:10:24.083Z,45.59
2022-08-20T17:12:54.831Z,45.78
2022-08-20T17:15:25.594Z,44.68
2022-08-20T17:17:55.565Z,45.65
2022-08-20T17:20:23.563Z,45.43
2022-08-20T17:23:08.109Z,44.75
2022-08-20T17:25:38.206Z,45.46
2022-08-20T17:28:18.941Z,45.52
2022-08-20T17:30:46.243Z,45.50
2022-08-20T17:33:30.099Z,46.27
2022-08-20T17:36:04.275Z,45.86
2022-08-20T17:38:36.947Z,45.79
2022-08-20T17:41:09.027Z,46.04
2022-08-20T17:43:35.682Z,46.15
2022-08-20T17:46:16.227Z,46.47
2022-08-20T17:48:44.443Z,46.09
2022-08-20T17:51:15.035Z,47.43
2022-08-20T17:53:42.870Z,47.77
2022-08-20T17:56:29.242Z,47.38
2022-08-20T17:59:03.352Z,47.90
2022-08-20T18:01:30.385Z,47.29
2022-08-20T18:03:57.875Z,47.80
2022-08-20T18:06:27.359Z,47.66
2022-08-20T18:09:02.711Z,47.95
2022-08-20T18:11:36.620Z,48.72
2022-08-20T18:14:17.541Z,49.81
2022-08-20T18:17:04.301Z,49.47
2022-08-20T18:19:46.631Z,48.48
2022-08-20T18:22:16.603Z,48.13
2022-08-20T18:24:57.673Z,48.42
2022-08-20T18:27:26.868Z,47.96
2022-08-20T18:29:58.858Z,48.08
2022-08-20T18:32:33.513Z,48.54
2022-08-20T18:35:07.705Z,48.16
2022-08-20T18:37:34.880Z,48.08
2022-08-20T18:40:06.965Z,47.96
2022-08-20T18:42:35.637Z,47.45
2022-08-20T18:45:02.952Z,47.47
2022-08-20T18:47:39.070Z,48.10
2022-08-20T18:50:23.734Z,48.14
2022-08-20T18:52:51.960Z,49.08
2022-08-20T18:55:29.571Z,48.67
2022-08-20T18:58:00.546Z,49.48
2022-08-20T19:00:32.720Z,50.14
2022-08-20T19:03:08.346Z,50.35
2022-08-20T19:05:46.862Z,49.90
2022-08-20T19:08:16.203Z,50.34
2022-08-20T19:10:47.691Z,49.89
2022-08-20T19:13:20.233Z,49.26
2022-08-20T19:15:51.917Z,48.80
2022-08-20T19:18:25.115Z,48.27
2022-08-20T19:20:55.190Z,48.38
2022-08-20T19:23:24.083Z,47.97
2022-08-20T19:25:59.933Z,48.66
2022-08-20T19:28:29.337Z,48.88
2022-08-20T19:30:56.402Z,48.53
2022-08-20T19:33:30.214Z,48.39
2022-08-20T19:36:08.283Z,48.37
2022-08-20T19:38:34.851Z,48.33
2022-08-20T19:41:11.027Z,48.31
2022-08-20T19:43:44.677Z,48.89
2022-08-20T19:46:12.760Z,49.65
2022-08-20T19:48:51.822Z,51.52
2022-08-20T19:51:35.991Z,51.92
2022-08-20T19:54:07.399Z,50.89
2022-08-20T19:56:40.832Z,49.20
2022-08-20T19:59:09.021Z,50.10
2022-08-20T20:01:36.346Z,49.93
2022-08-20T20:04:04.669Z,49.25
2022-08-20T20:06:34.838Z,49.20
2022-08-20T20:09:03.997Z,50.66
2022-08-20T20:11:34.053Z,50.88
2022-08-20T20:14:02.011Z,50.82
2022-08-20T20:16:29.674Z,51.59
2022-08-20T20:19:22.728Z,50.77
2022-08-20T20:21:47.770Z,51.33
2022-08-20T20:24:22.917Z,50.98
2022-08-20T20:26:49.555Z,51.31
2022-08-20T20:29:26.971Z,51.00
2022-08-20T20:31:58.050Z,51.63
2022-08-20T20:34:27.049Z,51.44
2022-08-20T20:37:04.669Z,49.88
2022-08-20T20:39:41.789Z,51.43
2022-08-20T20:42:09.918Z,51.86
2022-08-20T20:44:38.010Z,50.18
2022-08-20T20:47:06.185Z,49.63
2022-08-20T20:49:47.386Z,49.47
2022-08-20T20:52:23.059Z,50.79
2022-08-20T20:54:50.217Z,50.96
2022-08-20T20:57:16.751Z,51.06
2022-08-20T20:59:43.605Z,50.22
2022-08-20T21:02:10.203Z,49.62
2022-08-20T21:04:39.555Z,50.48
2022-08-20T21:07:09.973Z,50.83
2022-08-20T21:09:38.299Z,50.16
2022-08-20T21:12:05.476Z,49.95
2022-08-20T21:14:32.006Z,50.94
2022-08-20T21:17:00.553Z,50.47
2022-08-20T21:19:27.477Z,50.48
2022-08-20T21:21:53.998Z,50.04
2022-08-20T21:24:20.631Z,50.01
2022-08-20T21:26:47.737Z,50.16
2022-08-20T21:29:16.374Z,49.79
2022-08-20T21:31:44.598Z,50.46
2022-08-20T21:34:13.761Z,50.77
2022-08-20T21:36:40.579Z,50.03
2022-08-20T21:39:07.254Z,49.95
2022-08-20T21:41:34.065Z,49.73
2022-08-20T21:44:03.065Z,50.13
2022-08-20T21:46:31.160Z,49.83
2022-08-20T21:48:57.929Z,50.93
2022-08-20T21:51:25.430Z,51.75
2022-08-20T21:53:52.107Z,53.45
2022-08-20T21:56:18.879Z,52.46
2022-08-20T21:58:50.095Z,52.66
2022-08-20T22:01:17.151Z,52.97
2022-08-20T22:03:43.867Z,52.85
2022-08-20T22:06:15.416Z,54.25
2022-08-20T22:08:41.981Z,53.63
2022-08-20T22:11:09.719Z,52.17
2022-08-20T22:13:36.535Z,51.18
2022-08-20T22:16:05.026Z,50.79
2022-08-20T22:18:31.825Z,51.15
2022-08-20T22:20:58.382Z,50.87
2022-08-20T22:23:25.094Z,51.45
2022-08-20T22:25:51.875Z,52.03
2022-08-20T22:28:18.638Z,52.95
2022-08-20T22:30:45.218Z,52.70
2022-08-20T22:33:14.062Z,53.54
2022-08-20T22:35:46.463Z,54.02
2022-08-20T22:38:12.969Z,54.56
2022-08-20T22:40:39.526Z,54.09
2022-08-20T22:43:06.101Z,53.68
2022-08-20T22:45:32.786Z,53.03
2022-08-20T22:48:00.467Z,52.92
2022-08-20T22:50:27.005Z,54.36
2022-08-20T22:52:53.996Z,53.65
2022-08-20T22:55:21.017Z,53.56
2022-08-20T22:57:47.992Z,54.48
2022-08-20T23:00:16.928Z,53.29
2022-08-20T23:02:51.382Z,55.30
2022-08-20T23:05:22.254Z,55.22
2022-08-20T23:07:53.434Z,56.06
2022-08-20T23:10:21.031Z,57.11
2022-08-20T23:12:47.542Z,57.22
2022-08-20T23:15:14.041Z,57.96
2022-08-20T23:17:41.130Z,57.51
2022-08-20T23:20:09.527Z,57.27
2022-08-20T23:22:36.359Z,57.41
2022-08-20T23:25:04.082Z,56.98
2022-08-20T23:27:32.416Z,56.77
2022-08-20T23:29:58.958Z,56.45
2022-08-20T23:32:25.461Z,55.34
2022-08-20T23:34:52.194Z,55.92
2022-08-20T23:37:21.586Z,56.28
2022-08-20T23:39:49.803Z,56.88
2022-08-20T23:42:17.159Z,57.05
2022-08-20T23:44:43.805Z,56.82
2022-08-20T23:47:11.098Z,58.17
2022-08-20T23:49:37.841Z,56.28
2022-08-20T23:52:04.393Z,55.93
2022-08-20T23:54:31.742Z,57.18
2022-08-20T23:56:58.233Z,57.77
2022-08-20T23:59:25.519Z,57.66
